sensor_id;sensor_type;location;lat;lon;timestamp;temperature;humidity
44069;DHT22;29738;51.234;5.484;2023-04-01T00:01:11;10.10;99.90
44069;DHT22;29738;51.234;5.484;2023-04-01T00:03:41;10.20;99.90
44069;DHT22;29738;51.234;5.484;2023-04-01T00:06:13;10.10;99.90
44069;DHT22;29738;51.234;5.484;2023-04-01T00:08:40;10.10;99.90
44069;DHT22;29738;51.234;5.484;2023-04-01T00:11:06;10.10;99.90
44069;DHT22;29738;51.234;5.484;2023-04-01T00:13:32;10.10;99.90
44069;DHT22;29738;51.234;5.484;2023-04-01T00:16:00;10.00;99.90
44069;DHT22;29738;51.234;5.484;2023-04-01T00:18:30;10.00;99.90
44069;DHT22;29738;51.234;5.484;2023-04-01T00:20:56;10.00;99.90
44069;DHT22;29738;51.234;5.484;2023-04-01T00:23:22;10.00;99.90
44069;DHT22;29738;51.234;5.484;2023-04-01T00:26:03;10.10;99.90
44069;DHT22;29738;51.234;5.484;2023-04-01T00:28:29;10.10;99.90
44069;DHT22;29738;51.234;5.484;2023-04-01T00:30:55;10.10;99.90
44069;DHT22;29738;51.234;5.484;2023-04-01T00:33:21;10.10;99.90
44069;DHT22;29738;51.234;5.484;2023-04-01T00:35:47;10.00;99.90
44069;DHT22;29738;51.234;5.484;2023-04-01T00:38:14;10.10;99.90
44069;DHT22;29738;51.234;5.484;2023-04-01T00:40:43;10.00;99.90
44069;DHT22;29738;51.234;5.484;2023-04-01T00:43:17;10.00;99.90
44069;DHT22;29738;51.234;5.484;2023-04-01T00:45:46;10.00;99.90
44069;DHT22;29738;51.234;5.484;2023-04-01T00:48:23;10.00;99.90
44069;DHT22;29738;51.234;5.484;2023-04-01T00:51:13;9.90;99.90
44069;DHT22;29738;51.234;5.484;2023-04-01T00:53:49;9.90;99.90
44069;DHT22;29738;51.234;5.484;2023-04-01T00:56:36;9.90;99.90
44069;DHT22;29738;51.234;5.484;2023-04-01T00:59:15;10.00;99.90
44069;DHT22;29738;51.234;5.484;2023-04-01T01:01:42;10.00;99.90
44069;DHT22;29738;51.234;5.484;2023-04-01T01:04:31;9.90;99.90
44069;DHT22;29738;51.234;5.484;2023-04-01T01:15:22;10.00;99.90
44069;DHT22;29738;51.234;5.484;2023-04-01T01:18:28;9.90;99.90
44069;DHT22;29738;51.234;5.484;2023-04-01T01:21:21;10.00;99.90
44069;DHT22;29738;51.234;5.484;2023-04-01T01:24:11;9.90;99.90
44069;DHT22;29738;51.234;5.484;2023-04-01T01:27:01;9.80;99.90
44069;DHT22;29738;51.234;5.484;2023-04-01T01:37:34;9.90;99.90
44069;DHT22;29738;51.234;5.484;2023-04-01T01:40:04;9.90;99.90
44069;DHT22;29738;51.234;5.484;2023-04-01T01:42:32;10.00;99.90
44069;DHT22;29738;51.234;5.484;2023-04-01T01:45:00;10.10;99.90
44069;DHT22;29738;51.234;5.484;2023-04-01T01:47:28;10.00;99.90
44069;DHT22;29738;51.234;5.484;2023-04-01T01:49:58;10.00;99.90
44069;DHT22;29738;51.234;5.484;2023-04-01T01:52:35;10.00;99.90
44069;DHT22;29738;51.234;5.484;2023-04-01T01:55:22;10.00;99.90
44069;DHT22;29738;51.234;5.484;2023-04-01T01:57:49;9.90;99.90
44069;DHT22;29738;51.234;5.484;2023-04-01T02:00:19;9.80;99.90
44069;DHT22;29738;51.234;5.484;2023-04-01T02:02:48;9.90;99.90
44069;DHT22;29738;51.234;5.484;2023-04-01T02:05:19;9.90;99.90
44069;DHT22;29738;51.234;5.484;2023-04-01T02:07:54;10.00;99.90
44069;DHT22;29738;51.234;5.484;2023-04-01T02:10:33;10.00;99.90
44069;DHT22;29738;51.234;5.484;2023-04-01T02:13:17;9.90;99.90
44069;DHT22;29738;51.234;5.484;2023-04-01T02:15:53;9.90;99.90
44069;DHT22;29738;51.234;5.484;2023-04-01T02:18:21;10.00;99.90
44069;DHT22;29738;51.234;5.484;2023-04-01T02:20:48;10.00;99.90
44069;DHT22;29738;51.234;5.484;2023-04-01T02:23:15;10.00;99.90
44069;DHT22;29738;51.234;5.484;2023-04-01T02:25:42;9.90;99.90
44069;DHT22;29738;51.234;5.484;2023-04-01T02:28:20;9.90;99.90
44069;DHT22;29738;51.234;5.484;2023-04-01T02:30:46;10.00;99.90
44069;DHT22;29738;51.234;5.484;2023-04-01T02:33:15;10.00;99.90
44069;DHT22;29738;51.234;5.484;2023-04-01T02:35:42;10.00;99.90
44069;DHT22;29738;51.234;5.484;2023-04-01T02:38:08;10.00;99.90
44069;DHT22;29738;51.234;5.484;2023-04-01T02:40:47;9.90;99.90
44069;DHT22;29738;51.234;5.484;2023-04-01T02:43:14;9.90;99.90
44069;DHT22;29738;51.234;5.484;2023-04-01T02:45:47;9.80;99.90
44069;DHT22;29738;51.234;5.484;2023-04-01T02:48:13;9.90;99.90
44069;DHT22;29738;51.234;5.484;2023-04-01T02:50:42;9.80;99.90
44069;DHT22;29738;51.234;5.484;2023-04-01T02:53:07;9.90;99.90
44069;DHT22;29738;51.234;5.484;2023-04-01T02:55:36;9.90;99.90
44069;DHT22;29738;51.234;5.484;2023-04-01T02:58:05;9.90;99.90
44069;DHT22;29738;51.234;5.484;2023-04-01T03:00:31;9.80;99.90
44069;DHT22;29738;51.234;5.484;2023-04-01T03:02:57;9.80;99.90
44069;DHT22;29738;51.234;5.484;2023-04-01T03:05:32;9.70;99.90
44069;DHT22;29738;51.234;5.484;2023-04-01T03:07:58;9.80;99.90
44069;DHT22;29738;51.234;5.484;2023-04-01T03:10:23;9.80;99.90
44069;DHT22;29738;51.234;5.484;2023-04-01T03:12:49;9.80;99.90
44069;DHT22;29738;51.234;5.484;2023-04-01T03:15:15;9.70;99.90
44069;DHT22;29738;51.234;5.484;2023-04-01T03:17:52;9.80;99.90
44069;DHT22;29738;51.234;5.484;2023-04-01T03:20:18;9.70;99.90
44069;DHT22;29738;51.234;5.484;2023-04-01T03:22:52;9.80;99.90
44069;DHT22;29738;51.234;5.484;2023-04-01T03:25:18;9.80;99.90
44069;DHT22;29738;51.234;5.484;2023-04-01T03:27:44;9.80;99.90
44069;DHT22;29738;51.234;5.484;2023-04-01T03:30:12;9.70;99.90
44069;DHT22;29738;51.234;5.484;2023-04-01T03:32:38;9.80;99.90
44069;DHT22;29738;51.234;5.484;2023-04-01T03:35:05;9.70;99.90
44069;DHT22;29738;51.234;5.484;2023-04-01T03:37:31;9.70;99.90
44069;DHT22;29738;51.234;5.484;2023-04-01T03:39:57;9.70;99.90
44069;DHT22;29738;51.234;5.484;2023-04-01T03:42:23;9.70;99.90
44069;DHT22;29738;51.234;5.484;2023-04-01T03:44:48;9.80;99.90
44069;DHT22;29738;51.234;5.484;2023-04-01T03:47:15;9.80;99.90
44069;DHT22;29738;51.234;5.484;2023-04-01T03:49:41;9.70;99.90
44069;DHT22;29738;51.234;5.484;2023-04-01T03:52:10;9.70;99.90
44069;DHT22;29738;51.234;5.484;2023-04-01T03:54:36;9.70;99.90
44069;DHT22;29738;51.234;5.484;2023-04-01T03:57:02;9.70;99.90
44069;DHT22;29738;51.234;5.484;2023-04-01T03:59:31;9.60;99.90
44069;DHT22;29738;51.234;5.484;2023-04-01T04:01:57;9.60;99.90
44069;DHT22;29738;51.234;5.484;2023-04-01T04:04:23;9.60;99.90
44069;DHT22;29738;51.234;5.484;2023-04-01T04:06:49;9.60;99.90
44069;DHT22;29738;51.234;5.484;2023-04-01T04:09:18;9.50;99.90
44069;DHT22;29738;51.234;5.484;2023-04-01T04:11:44;9.50;99.90
44069;DHT22;29738;51.234;5.484;2023-04-01T04:14:20;9.50;99.90
44069;DHT22;29738;51.234;5.484;2023-04-01T04:16:46;9.60;99.90
44069;DHT22;29738;51.234;5.484;2023-04-01T04:19:12;9.60;99.90
44069;DHT22;29738;51.234;5.484;2023-04-01T04:21:39;9.60;99.90
44069;DHT22;29738;51.234;5.484;2023-04-01T04:24:06;9.60;99.90
44069;DHT22;29738;51.234;5.484;2023-04-01T04:26:32;9.70;99.90
44069;DHT22;29738;51.234;5.484;2023-04-01T04:28:58;9.60;99.90
44069;DHT22;29738;51.234;5.484;2023-04-01T04:31:24;9.60;99.90
44069;DHT22;29738;51.234;5.484;2023-04-01T04:33:51;9.60;99.90
44069;DHT22;29738;51.234;5.484;2023-04-01T04:36:18;9.60;99.90
44069;DHT22;29738;51.234;5.484;2023-04-01T04:38:44;9.50;99.90
44069;DHT22;29738;51.234;5.484;2023-04-01T04:41:18;9.50;99.90
44069;DHT22;29738;51.234;5.484;2023-04-01T04:43:50;9.50;99.90
44069;DHT22;29738;51.234;5.484;2023-04-01T04:46:17;9.50;99.90
44069;DHT22;29738;51.234;5.484;2023-04-01T04:48:42;9.50;99.90
44069;DHT22;29738;51.234;5.484;2023-04-01T04:51:15;9.50;99.90
44069;DHT22;29738;51.234;5.484;2023-04-01T04:53:41;9.50;99.90
44069;DHT22;29738;51.234;5.484;2023-04-01T04:56:07;9.60;99.90
44069;DHT22;29738;51.234;5.484;2023-04-01T04:58:37;9.50;99.90
44069;DHT22;29738;51.234;5.484;2023-04-01T05:01:09;9.50;99.90
44069;DHT22;29738;51.234;5.484;2023-04-01T05:03:37;9.50;99.90
44069;DHT22;29738;51.234;5.484;2023-04-01T05:06:04;9.40;99.90
44069;DHT22;29738;51.234;5.484;2023-04-01T05:08:30;9.50;99.90
44069;DHT22;29738;51.234;5.484;2023-04-01T05:10:58;9.40;99.90
44069;DHT22;29738;51.234;5.484;2023-04-01T05:13:24;9.40;99.90
44069;DHT22;29738;51.234;5.484;2023-04-01T05:15:50;9.40;99.90
44069;DHT22;29738;51.234;5.484;2023-04-01T05:18:16;9.40;99.90
44069;DHT22;29738;51.234;5.484;2023-04-01T05:20:50;9.40;99.90
44069;DHT22;29738;51.234;5.484;2023-04-01T05:23:16;9.40;99.90
44069;DHT22;29738;51.234;5.484;2023-04-01T05:25:42;9.40;99.90
44069;DHT22;29738;51.234;5.484;2023-04-01T05:28:08;9.40;99.90
44069;DHT22;29738;51.234;5.484;2023-04-01T05:30:34;9.40;99.90
44069;DHT22;29738;51.234;5.484;2023-04-01T05:33:00;9.40;99.90
44069;DHT22;29738;51.234;5.484;2023-04-01T05:35:26;9.30;99.90
44069;DHT22;29738;51.234;5.484;2023-04-01T05:37:51;9.40;99.90
44069;DHT22;29738;51.234;5.484;2023-04-01T05:40:17;9.40;99.90
44069;DHT22;29738;51.234;5.484;2023-04-01T05:42:43;9.40;99.90
44069;DHT22;29738;51.234;5.484;2023-04-01T05:45:12;9.40;99.90
44069;DHT22;29738;51.234;5.484;2023-04-01T05:47:40;9.30;99.90
44069;DHT22;29738;51.234;5.484;2023-04-01T05:50:08;9.40;99.90
44069;DHT22;29738;51.234;5.484;2023-04-01T05:52:34;9.30;99.90
44069;DHT22;29738;51.234;5.484;2023-04-01T05:55:00;9.30;99.90
44069;DHT22;29738;51.234;5.484;2023-04-01T05:57:26;9.30;99.90
44069;DHT22;29738;51.234;5.484;2023-04-01T05:59:52;9.30;99.90
44069;DHT22;29738;51.234;5.484;2023-04-01T06:02:18;9.40;99.90
44069;DHT22;29738;51.234;5.484;2023-04-01T06:04:44;9.30;99.90
44069;DHT22;29738;51.234;5.484;2023-04-01T06:07:15;9.40;99.90
44069;DHT22;29738;51.234;5.484;2023-04-01T06:09:42;9.40;99.90
44069;DHT22;29738;51.234;5.484;2023-04-01T06:28:48;9.40;99.90
44069;DHT22;29738;51.234;5.484;2023-04-01T06:31:35;9.40;99.90
44069;DHT22;29738;51.234;5.484;2023-04-01T06:34:27;9.40;99.90
44069;DHT22;29738;51.234;5.484;2023-04-01T06:37:23;9.40;99.90
44069;DHT22;29738;51.234;5.484;2023-04-01T06:42:43;9.40;99.90
44069;DHT22;29738;51.234;5.484;2023-04-01T06:50:30;9.40;99.90
44069;DHT22;29738;51.234;5.484;2023-04-01T06:55:50;9.40;99.90
44069;DHT22;29738;51.234;5.484;2023-04-01T06:58:27;9.40;99.90
44069;DHT22;29738;51.234;5.484;2023-04-01T07:00:58;9.40;99.90
44069;DHT22;29738;51.234;5.484;2023-04-01T07:03:34;9.40;99.90
44069;DHT22;29738;51.234;5.484;2023-04-01T07:06:20;9.40;99.90
44069;DHT22;29738;51.234;5.484;2023-04-01T07:08:53;9.40;99.90
44069;DHT22;29738;51.234;5.484;2023-04-01T07:11:29;9.40;99.90
44069;DHT22;29738;51.234;5.484;2023-04-01T07:14:02;9.40;99.90
44069;DHT22;29738;51.234;5.484;2023-04-01T07:16:43;9.40;99.90
44069;DHT22;29738;51.234;5.484;2023-04-01T07:19:31;9.40;99.90
44069;DHT22;29738;51.234;5.484;2023-04-01T07:22:00;9.40;99.90
44069;DHT22;29738;51.234;5.484;2023-04-01T07:24:47;9.40;99.90
44069;DHT22;29738;51.234;5.484;2023-04-01T07:27:13;9.40;99.90
44069;DHT22;29738;51.234;5.484;2023-04-01T07:29:40;9.40;99.90
44069;DHT22;29738;51.234;5.484;2023-04-01T07:45:36;9.50;99.90
44069;DHT22;29738;51.234;5.484;2023-04-01T07:48:18;9.40;99.90
44069;DHT22;29738;51.234;5.484;2023-04-01T07:51:08;9.50;99.90
44069;DHT22;29738;51.234;5.484;2023-04-01T07:57:10;9.60;99.90
44069;DHT22;29738;51.234;5.484;2023-04-01T08:08:41;9.60;99.90
44069;DHT22;29738;51.234;5.484;2023-04-01T08:11:24;9.60;99.90
44069;DHT22;29738;51.234;5.484;2023-04-01T08:22:26;9.70;99.90
44069;DHT22;29738;51.234;5.484;2023-04-01T08:24:55;9.70;99.90
44069;DHT22;29738;51.234;5.484;2023-04-01T08:27:37;9.60;99.90
44069;DHT22;29738;51.234;5.484;2023-04-01T08:33:24;9.70;99.90
44069;DHT22;29738;51.234;5.484;2023-04-01T08:39:18;9.80;99.90
44069;DHT22;29738;51.234;5.484;2023-04-01T08:44:45;9.80;99.90
44069;DHT22;29738;51.234;5.484;2023-04-01T08:50:31;9.90;99.90
44069;DHT22;29738;51.234;5.484;2023-04-01T08:53:26;10.00;99.90
44069;DHT22;29738;51.234;5.484;2023-04-01T08:56:17;10.00;99.90
44069;DHT22;29738;51.234;5.484;2023-04-01T09:25:06;9.90;99.90
44069;DHT22;29738;51.234;5.484;2023-04-01T09:33:30;10.00;99.90
44069;DHT22;29738;51.234;5.484;2023-04-01T09:52:51;9.80;99.90
44069;DHT22;29738;51.234;5.484;2023-04-01T10:21:51;10.00;99.90
44069;DHT22;29738;51.234;5.484;2023-04-01T10:41:05;10.00;99.90
44069;DHT22;29738;51.234;5.484;2023-04-01T10:52:12;10.20;99.90
44069;DHT22;29738;51.234;5.484;2023-04-01T10:55:04;10.30;99.90
44069;DHT22;29738;51.234;5.484;2023-04-01T11:09:43;10.30;99.90
44069;DHT22;29738;51.234;5.484;2023-04-01T11:12:24;10.30;99.90
44069;DHT22;29738;51.234;5.484;2023-04-01T11:20:55;10.40;99.90
44069;DHT22;29738;51.234;5.484;2023-04-01T11:42:46;10.40;99.90
44069;DHT22;29738;51.234;5.484;2023-04-01T11:45:34;10.50;99.90
44069;DHT22;29738;51.234;5.484;2023-04-01T11:48:14;10.60;99.90
44069;DHT22;29738;51.234;5.484;2023-04-01T11:56:09;10.90;99.90
44069;DHT22;29738;51.234;5.484;2023-04-01T12:04:33;11.00;99.90
44069;DHT22;29738;51.234;5.484;2023-04-01T12:07:32;10.90;99.90
44069;DHT22;29738;51.234;5.484;2023-04-01T12:10:40;11.00;99.90
44069;DHT22;29738;51.234;5.484;2023-04-01T12:18:59;10.70;99.90
44069;DHT22;29738;51.234;5.484;2023-04-01T12:21:38;10.80;99.90
44069;DHT22;29738;51.234;5.484;2023-04-01T12:24:28;10.90;99.90
44069;DHT22;29738;51.234;5.484;2023-04-01T12:27:17;10.90;99.90
44069;DHT22;29738;51.234;5.484;2023-04-01T12:53:53;10.60;99.90
44069;DHT22;29738;51.234;5.484;2023-04-01T12:55:43;10.60;99.90
44069;DHT22;29738;51.234;5.484;2023-04-01T13:01:25;10.60;99.90
44069;DHT22;29738;51.234;5.484;2023-04-01T13:04:20;10.40;99.90
44069;DHT22;29738;51.234;5.484;2023-04-01T13:07:12;10.50;99.90
44069;DHT22;29738;51.234;5.484;2023-04-01T13:17:41;10.30;99.90
44069;DHT22;29738;51.234;5.484;2023-04-01T13:26:00;10.50;99.90
44069;DHT22;29738;51.234;5.484;2023-04-01T13:28:40;10.40;99.90
44069;DHT22;29738;51.234;5.484;2023-04-01T13:44:14;10.40;99.90
44069;DHT22;29738;51.234;5.484;2023-04-01T13:47:09;10.60;99.90
44069;DHT22;29738;51.234;5.484;2023-04-01T14:01:41;10.50;99.90
44069;DHT22;29738;51.234;5.484;2023-04-01T14:04:29;10.50;99.90
44069;DHT22;29738;51.234;5.484;2023-04-01T14:10:01;10.40;99.90
44069;DHT22;29738;51.234;5.484;2023-04-01T14:29:42;10.40;99.90
44069;DHT22;29738;51.234;5.484;2023-04-01T14:32:49;10.50;99.90
44069;DHT22;29738;51.234;5.484;2023-04-01T14:38:47;10.60;99.90
44069;DHT22;29738;51.234;5.484;2023-04-01T14:41:40;10.50;99.90
44069;DHT22;29738;51.234;5.484;2023-04-01T14:47:22;10.40;99.90
44069;DHT22;29738;51.234;5.484;2023-04-01T14:50:03;10.20;99.90
44069;DHT22;29738;51.234;5.484;2023-04-01T14:52:33;10.40;99.90
44069;DHT22;29738;51.234;5.484;2023-04-01T14:55:11;10.30;99.90
44069;DHT22;29738;51.234;5.484;2023-04-01T15:09:11;10.40;99.90
44069;DHT22;29738;51.234;5.484;2023-04-01T15:12:00;10.40;99.90
44069;DHT22;29738;51.234;5.484;2023-04-01T15:17:44;10.40;99.90
44069;DHT22;29738;51.234;5.484;2023-04-01T15:20:22;10.60;99.90
44069;DHT22;29738;51.234;5.484;2023-04-01T15:26:09;10.60;99.90
44069;DHT22;29738;51.234;5.484;2023-04-01T15:28:53;10.40;99.90
44069;DHT22;29738;51.234;5.484;2023-04-01T15:34:09;10.30;99.90
44069;DHT22;29738;51.234;5.484;2023-04-01T15:36:47;10.40;99.90
44069;DHT22;29738;51.234;5.484;2023-04-01T15:39:24;10.40;99.90
44069;DHT22;29738;51.234;5.484;2023-04-01T15:45:03;10.40;99.90
44069;DHT22;29738;51.234;5.484;2023-04-01T15:50:56;10.30;99.90
44069;DHT22;29738;51.234;5.484;2023-04-01T15:53:49;10.20;99.90
44069;DHT22;29738;51.234;5.484;2023-04-01T15:56:44;10.10;99.90
44069;DHT22;29738;51.234;5.484;2023-04-01T16:02:52;10.30;99.90
44069;DHT22;29738;51.234;5.484;2023-04-01T16:23:56;10.30;99.90
44069;DHT22;29738;51.234;5.484;2023-04-01T16:31:50;10.20;99.90
44069;DHT22;29738;51.234;5.484;2023-04-01T16:34:25;10.20;99.90
44069;DHT22;29738;51.234;5.484;2023-04-01T16:40:10;10.20;99.90
44069;DHT22;29738;51.234;5.484;2023-04-01T16:42:52;10.20;99.90
44069;DHT22;29738;51.234;5.484;2023-04-01T16:45:39;10.10;99.90
44069;DHT22;29738;51.234;5.484;2023-04-01T16:48:14;10.10;99.90
44069;DHT22;29738;51.234;5.484;2023-04-01T16:51:03;10.00;99.90
44069;DHT22;29738;51.234;5.484;2023-04-01T16:53:41;10.00;99.90
44069;DHT22;29738;51.234;5.484;2023-04-01T16:56:15;10.00;99.90
44069;DHT22;29738;51.234;5.484;2023-04-01T17:01:57;9.90;99.90
44069;DHT22;29738;51.234;5.484;2023-04-01T17:04:34;9.90;99.90
44069;DHT22;29738;51.234;5.484;2023-04-01T17:15:16;9.70;99.90
44069;DHT22;29738;51.234;5.484;2023-04-01T17:20:43;9.70;99.90
44069;DHT22;29738;51.234;5.484;2023-04-01T17:23:23;9.70;99.90
44069;DHT22;29738;51.234;5.484;2023-04-01T17:28:52;9.60;99.90
44069;DHT22;29738;51.234;5.484;2023-04-01T17:37:02;9.50;99.90
44069;DHT22;29738;51.234;5.484;2023-04-01T17:45:42;9.60;99.90
44069;DHT22;29738;51.234;5.484;2023-04-01T17:48:37;9.60;99.90
44069;DHT22;29738;51.234;5.484;2023-04-01T17:59:26;9.60;99.90
44069;DHT22;29738;51.234;5.484;2023-04-01T18:10:02;9.50;99.90
44069;DHT22;29738;51.234;5.484;2023-04-01T18:23:46;9.60;99.90
44069;DHT22;29738;51.234;5.484;2023-04-01T18:26:20;9.60;99.90
44069;DHT22;29738;51.234;5.484;2023-04-01T18:29:11;9.80;99.90
44069;DHT22;29738;51.234;5.484;2023-04-01T18:31:42;9.80;99.90
44069;DHT22;29738;51.234;5.484;2023-04-01T18:37:16;9.90;99.90
44069;DHT22;29738;51.234;5.484;2023-04-01T18:39:52;9.90;99.90
44069;DHT22;29738;51.234;5.484;2023-04-01T19:05:09;10.30;99.90
44069;DHT22;29738;51.234;5.484;2023-04-01T19:21:47;10.40;99.90
44069;DHT22;29738;51.234;5.484;2023-04-01T19:24:53;10.40;99.90
44069;DHT22;29738;51.234;5.484;2023-04-01T19:27:42;10.50;99.90
44069;DHT22;29738;51.234;5.484;2023-04-01T19:30:32;10.50;99.90
44069;DHT22;29738;51.234;5.484;2023-04-01T19:35:54;10.30;99.90
44069;DHT22;29738;51.234;5.484;2023-04-01T19:38:30;10.10;99.90
44069;DHT22;29738;51.234;5.484;2023-04-01T19:44:18;10.00;99.90
44069;DHT22;29738;51.234;5.484;2023-04-01T19:46:51;10.00;99.90
44069;DHT22;29738;51.234;5.484;2023-04-01T19:49:42;9.90;99.90
44069;DHT22;29738;51.234;5.484;2023-04-01T19:52:33;9.90;99.90
44069;DHT22;29738;51.234;5.484;2023-04-01T20:00:58;9.70;99.90
44069;DHT22;29738;51.234;5.484;2023-04-01T20:06:12;9.70;99.90
44069;DHT22;29738;51.234;5.484;2023-04-01T20:14:13;9.70;99.90
44069;DHT22;29738;51.234;5.484;2023-04-01T20:17:02;9.60;99.90
44069;DHT22;29738;51.234;5.484;2023-04-01T20:20:00;9.60;99.90
44069;DHT22;29738;51.234;5.484;2023-04-01T20:28:09;9.50;99.90
44069;DHT22;29738;51.234;5.484;2023-04-01T20:36:40;9.50;99.90
44069;DHT22;29738;51.234;5.484;2023-04-01T20:44:46;9.30;99.90
44069;DHT22;29738;51.234;5.484;2023-04-01T20:53:32;9.30;99.90
44069;DHT22;29738;51.234;5.484;2023-04-01T21:12:24;9.10;99.90
44069;DHT22;29738;51.234;5.484;2023-04-01T21:21:18;8.90;99.90
44069;DHT22;29738;51.234;5.484;2023-04-01T21:34:52;8.70;99.90
44069;DHT22;29738;51.234;5.484;2023-04-01T21:48:44;8.60;99.90
44069;DHT22;29738;51.234;5.484;2023-04-01T22:05:22;8.50;99.90
44069;DHT22;29738;51.234;5.484;2023-04-01T22:08:02;8.50;99.90
44069;DHT22;29738;51.234;5.484;2023-04-01T22:16:27;8.50;99.90
44069;DHT22;29738;51.234;5.484;2023-04-01T22:22:29;8.40;99.90
44069;DHT22;29738;51.234;5.484;2023-04-01T22:25:29;8.50;99.90
44069;DHT22;29738;51.234;5.484;2023-04-01T22:28:27;8.50;99.90
44069;DHT22;29738;51.234;5.484;2023-04-01T22:31:02;8.40;99.90
44069;DHT22;29738;51.234;5.484;2023-04-01T22:33:53;8.50;99.90
44069;DHT22;29738;51.234;5.484;2023-04-01T22:50:05;8.30;99.90
44069;DHT22;29738;51.234;5.484;2023-04-01T22:52:45;8.30;99.90
44069;DHT22;29738;51.234;5.484;2023-04-01T22:55:29;8.20;99.90
44069;DHT22;29738;51.234;5.484;2023-04-01T23:00:33;8.00;99.90
44069;DHT22;29738;51.234;5.484;2023-04-01T23:03:17;8.00;99.90
44069;DHT22;29738;51.234;5.484;2023-04-01T23:05:53;8.00;99.90
44069;DHT22;29738;51.234;5.484;2023-04-01T23:11:44;8.00;99.90
44069;DHT22;29738;51.234;5.484;2023-04-01T23:22:31;7.80;99.90
44069;DHT22;29738;51.234;5.484;2023-04-01T23:25:05;7.70;99.90
44069;DHT22;29738;51.234;5.484;2023-04-01T23:27:59;7.70;99.90
44069;DHT22;29738;51.234;5.484;2023-04-01T23:36:02;7.50;99.90
44069;DHT22;29738;51.234;5.484;2023-04-01T23:38:38;7.40;99.90
44069;DHT22;29738;51.234;5.484;2023-04-01T23:41:05;7.50;99.90
44069;DHT22;29738;51.234;5.484;2023-04-01T23:43:35;7.40;99.90
44069;DHT22;29738;51.234;5.484;2023-04-01T23:46:02;7.40;99.90
44069;DHT22;29738;51.234;5.484;2023-04-01T23:48:43;7.40;99.90
44069;DHT22;29738;51.234;5.484;2023-04-01T23:51:21;7.40;99.90
44069;DHT22;29738;51.234;5.484;2023-04-01T23:54:01;7.40;99.90
44069;DHT22;29738;51.234;5.484;2023-04-01T23:56:38;7.40;99.90
44069;DHT22;29738;51.234;5.484;2023-04-01T23:59:04;7.30;99.90
